Time;durP1;ratioP1;P1;durP2;ratioP2;P2;SDS_P1;SDS_P2;PMS_P1;PMS_P2;Temp;Humidity;BMP_temperature;BMP_pressure;BME280_temperature;BME280_humidity;BME280_pressure;Samples;Min_cycle;Max_cycle;Signal;HPM_P1;HPM_P2
2022/06/02 00:00:56;;;;;;;;;4.25;4.00;;;;;14.51;47.80;100910.97;4974100;28;45204;-70
2022/06/02 00:03:28;;;;;;;;;3.25;3.25;;;;;14.49;48.09;100919.91;4974021;28;45455;-68
2022/06/02 00:06:16;;;;;;;;;3.75;3.75;;;;;14.38;47.95;100905.44;4972521;28;46542;-69
2022/06/02 00:08:59;;;;;;;;;6.00;6.00;;;;;14.42;48.35;100914.06;4974089;28;45359;-70
2022/06/02 00:11:37;;;;;;;;;3.50;3.50;;;;;14.38;48.19;100915.16;4972588;28;45412;-70
2022/06/02 00:14:10;;;;;;;;;4.00;2.00;;;;;14.34;48.74;100918.91;4972479;28;45497;-70
2022/06/02 00:16:47;;;;;;;;;6.00;6.00;;;;;14.30;48.71;100918.19;4971223;28;47414;-70
2022/06/02 00:19:36;;;;;;;;;5.00;5.00;;;;;14.26;49.29;100930.69;4973265;28;45424;-71
2022/06/02 00:22:12;;;;;;;;;5.50;5.50;;;;;14.17;48.76;100929.41;4980407;28;45432;-70
2022/06/02 00:24:50;;;;;;;;;4.00;4.00;;;;;14.19;49.27;100934.59;4972521;28;45407;-69
2022/06/02 00:27:25;;;;;;;;;5.00;5.00;;;;;14.17;49.12;100933.81;4972812;28;46520;-69
2022/06/02 00:30:08;;;;;;;;;6.25;4.75;;;;;14.16;48.96;100940.91;4976437;28;45395;-70
2022/06/02 00:33:11;;;;;;;;;5.00;5.00;;;;;14.14;49.33;100939.25;4972067;28;45205;-68
2022/06/02 00:35:52;;;;;;;;;6.00;4.00;;;;;14.10;49.00;100951.78;4974056;28;45465;-69
2022/06/02 00:38:26;;;;;;;;;4.00;4.00;;;;;14.09;49.49;100944.78;4971743;28;46389;-70
2022/06/02 00:40:53;;;;;;;;;0.00;0.00;;;;;14.05;49.33;100942.34;4971771;28;45495;-69
2022/06/02 00:43:31;;;;;;;;;4.50;3.25;;;;;14.06;49.28;100941.44;4972138;28;45354;-70
2022/06/02 00:46:03;;;;;;;;;3.00;3.00;;;;;14.03;49.52;100938.00;4972090;28;45319;-71
2022/06/02 00:49:07;;;;;;;;;2.75;2.75;;;;;14.02;49.70;100933.63;4971577;28;45485;-71
2022/06/02 00:51:55;;;;;;;;;4.25;4.00;;;;;14.01;49.66;100945.16;4971492;28;45299;-71
2022/06/02 00:57:42;;;;;;;;;5.50;5.50;;;;;13.96;50.13;100935.75;4971310;28;45241;-69
2022/06/02 01:00:17;;;;;;;;;4.25;4.25;;;;;13.93;50.22;100934.09;4971359;28;45439;-70
2022/06/02 01:02:53;;;;;;;;;6.00;4.50;;;;;13.92;50.06;100939.47;4974937;28;45373;-70
2022/06/02 01:05:34;;;;;;;;;4.00;4.00;;;;;13.90;50.51;100941.34;4971807;28;45327;-69
2022/06/02 01:08:06;;;;;;;;;4.50;4.50;;;;;13.86;50.71;100933.56;4974458;28;45187;-72
2022/06/02 01:11:05;;;;;;;;;4.00;4.00;;;;;13.84;50.50;100932.78;4974716;28;46521;-72
2022/06/02 01:13:52;;;;;;;;;6.00;6.00;;;;;13.82;50.48;100929.34;4976501;28;45306;-72
2022/06/02 01:16:45;;;;;;;;;4.25;4.25;;;;;13.77;50.72;100926.03;4975049;28;45406;-72
2022/06/02 01:19:32;;;;;;;;;3.75;3.75;;;;;13.79;51.27;100932.13;4977766;28;45559;-73
2022/06/02 01:22:11;;;;;;;;;4.00;4.00;;;;;13.77;50.98;100926.03;4974586;28;45400;-71
2022/06/02 01:24:48;;;;;;;;;3.50;3.50;;;;;13.75;51.58;100925.25;4973067;28;45469;-71
2022/06/02 01:27:25;;;;;;;;;5.00;5.00;;;;;13.73;51.47;100916.53;4976490;28;45331;-72
2022/06/02 01:30:14;;;;;;;;;5.00;5.00;;;;;13.69;51.66;100926.41;4979126;28;45226;-72
2022/06/02 01:32:58;;;;;;;;;6.75;6.75;;;;;13.66;51.66;100937.13;4979746;28;45327;-70
2022/06/02 01:35:47;;;;;;;;;7.00;7.00;;;;;13.62;52.46;100932.94;4975857;28;45405;-71
2022/06/02 01:38:36;;;;;;;;;7.25;5.75;;;;;13.57;51.89;100927.84;4975267;28;45234;-70
2022/06/02 01:41:21;;;;;;;;;6.50;6.50;;;;;13.53;52.29;100928.06;4981116;28;45222;-72
2022/06/02 01:44:06;;;;;;;;;7.75;7.00;;;;;13.48;52.46;100922.16;4977717;28;45440;-71
2022/06/02 01:47:01;;;;;;;;;7.75;6.50;;;;;13.44;52.55;100924.06;4976999;28;45189;-72
2022/06/02 01:49:51;;;;;;;;;6.75;6.75;;;;;13.39;52.91;100926.91;4974354;28;45223;-73
2022/06/02 01:52:44;;;;;;;;;6.25;6.25;;;;;13.32;53.02;100921.97;4974923;28;45319;-72
2022/06/02 01:55:22;;;;;;;;;8.25;6.25;;;;;13.26;52.89;100931.88;4972468;28;48399;-72
2022/06/02 01:57:50;;;;;;;;;8.25;6.75;;;;;13.33;53.11;100939.53;4974183;28;45397;-72
2022/06/02 02:00:20;;;;;;;;;8.50;7.25;;;;;13.22;53.67;100930.31;4974270;28;45381;-72
2022/06/02 02:03:16;;;;;;;;;7.50;6.00;;;;;13.25;53.30;100942.50;4975742;28;45513;-73
2022/06/02 02:05:51;;;;;;;;;6.50;6.50;;;;;13.23;53.40;100949.66;4990068;28;47639;-73
2022/06/02 02:08:17;;;;;;;;;9.25;9.25;;;;;13.18;53.83;100947.22;4974187;28;45407;-73
2022/06/02 02:10:57;;;;;;;;;6.50;6.50;;;;;13.15;53.97;100953.50;4973990;28;45378;-72
2022/06/02 02:13:47;;;;;;;;;6.50;6.50;;;;;13.11;54.01;100941.34;4973873;28;45469;-71
2022/06/02 02:16:21;;;;;;;;;6.50;6.50;;;;;13.08;53.78;100938.84;4973449;28;45342;-72
2022/06/02 02:18:56;;;;;;;;;6.25;6.25;;;;;13.04;54.33;100936.44;4972655;28;45397;-73
2022/06/02 02:21:27;;;;;;;;;7.00;7.00;;;;;13.01;54.36;100926.84;4974048;28;45538;-71
2022/06/02 02:24:19;;;;;;;;;9.50;7.00;;;;;13.00;54.13;100927.78;4973726;28;45401;-73
2022/06/02 02:26:57;;;;;;;;;7.25;7.25;;;;;12.99;54.62;100932.22;4973336;28;45291;-72
2022/06/02 02:30:02;;;;;;;;;7.25;7.00;;;;;12.97;54.38;100938.47;4975128;28;45383;-71
2022/06/02 02:32:30;;;;;;;;;7.75;7.75;;;;;12.94;54.71;100928.06;4974133;28;45461;-72
2022/06/02 02:35:13;;;;;;;;;8.00;8.00;;;;;12.92;54.46;100922.88;4973676;28;45400;-72
2022/06/02 02:37:52;;;;;;;;;7.00;7.00;;;;;12.89;55.11;100927.41;4973951;28;45412;-71
2022/06/02 02:40:46;;;;;;;;;6.50;6.50;;;;;12.84;54.42;100925.00;4973867;28;45330;-72
2022/06/02 02:43:21;;;;;;;;;8.25;7.00;;;;;12.84;55.15;100925.00;4973403;28;45419;-71
2022/06/02 02:45:54;;;;;;;;;8.25;8.25;;;;;12.79;54.67;100916.41;4974011;28;45474;-71
2022/06/02 02:48:42;;;;;;;;;8.50;8.50;;;;;12.82;54.74;100924.19;4975161;28;46299;-72
2022/06/02 02:51:38;;;;;;;;;7.25;7.25;;;;;12.77;55.48;100921.75;4974647;28;45441;-71
2022/06/02 02:54:21;;;;;;;;;12.00;9.00;;;;;12.75;55.35;100925.41;4973497;28;45635;-71
2022/06/02 02:57:02;;;;;;;;;8.00;8.00;;;;;12.74;55.50;100934.22;4974439;28;45546;-73
2022/06/02 02:59:36;;;;;;;;;8.75;8.75;;;;;12.73;55.00;100936.00;4973935;28;45465;-70
2022/06/02 03:02:17;;;;;;;;;7.25;7.25;;;;;12.71;55.37;100930.78;4975264;28;45274;-73
2022/06/02 03:05:10;;;;;;;;;8.00;6.25;;;;;12.65;55.52;100933.69;4974889;28;45206;-72
2022/06/02 03:07:36;;;;;;;;;8.25;8.25;;;;;12.66;55.52;100940.69;4976179;28;45454;-71
2022/06/02 03:10:17;;;;;;;;;7.00;7.00;;;;;12.66;55.69;100934.56;4988552;27;45488;-71
2022/06/02 03:12:52;;;;;;;;;11.50;9.00;;;;;12.64;55.75;100939.88;4973601;28;45911;-72
2022/06/02 03:15:25;;;;;;;;;9.00;8.00;;;;;12.59;56.46;100926.03;4977431;28;45378;-71
2022/06/02 03:18:06;;;;;;;;;9.50;8.00;;;;;12.58;56.01;100924.31;4977509;28;45280;-72
2022/06/02 03:20:54;;;;;;;;;12.75;9.75;;;;;12.52;55.96;100921.94;4979392;28;46367;-72
2022/06/02 03:23:52;;;;;;;;;8.75;7.00;;;;;12.49;56.70;100922.06;4976747;28;45350;-69
2022/06/02 03:26:41;;;;;;;;;8.25;8.25;;;;;12.45;56.21;100923.13;4977278;28;45355;-72
2022/06/02 03:29:15;;;;;;;;;9.25;8.00;;;;;12.40;56.78;100925.97;4974767;28;45400;-72
2022/06/02 03:31:44;;;;;;;;;11.00;9.25;;;;;12.40;56.44;100931.25;4974708;28;45356;-72
2022/06/02 03:34:24;;;;;;;;;9.00;8.00;;;;;12.37;56.24;100926.13;4975325;28;45252;-71
2022/06/02 03:37:26;;;;;;;;;10.50;10.50;;;;;12.35;57.02;100936.72;4973517;28;45345;-72
2022/06/02 03:40:06;;;;;;;;;8.75;8.75;;;;;12.32;56.89;100936.84;4972178;28;45279;-73
2022/06/02 03:43:06;;;;;;;;;9.50;9.50;;;;;12.31;56.96;100939.56;4972790;28;45259;-71
2022/06/02 03:45:49;;;;;;;;;11.00;11.00;;;;;12.28;57.53;100935.25;4972390;28;45333;-72
2022/06/02 03:48:17;;;;;;;;;11.50;9.25;;;;;12.25;57.70;100938.91;4972540;28;45417;-72
2022/06/02 03:50:48;;;;;;;;;10.25;10.25;;;;;12.18;57.46;100939.19;4972669;28;45451;-72
2022/06/02 03:53:33;;;;;;;;;10.50;9.25;;;;;12.22;57.13;100948.69;4972214;28;46146;-73
2022/06/02 03:56:14;;;;;;;;;10.00;9.50;;;;;12.21;57.31;100957.53;4972243;28;45366;-73
2022/06/02 03:59:21;;;;;;;;;9.00;9.00;;;;;12.18;57.49;100945.31;4974381;28;45436;-73
2022/06/02 04:01:59;;;;;;;;;9.00;9.00;;;;;12.17;58.08;100935.69;4975836;28;45282;-73
2022/06/02 04:04:45;;;;;;;;;8.75;8.75;;;;;12.12;57.45;100927.09;4978078;28;45450;-71
2022/06/02 04:07:33;;;;;;;;;10.75;8.25;;;;;12.15;58.07;100940.16;4974488;28;45197;-72
2022/06/02 04:10:32;;;;;;;;;13.50;11.00;;;;;12.15;58.10;100944.59;4974228;28;45339;-72
2022/06/02 04:16:22;;;;;;;;;11.25;11.25;;;;;12.11;58.08;100942.09;4973486;28;45257;-70
2022/06/02 04:22:47;;;;;;;;;10.75;9.50;;;;;12.15;57.82;100953.34;4972586;28;45280;-73
2022/06/02 04:25:38;;;;;;;;;11.50;11.50;;;;;12.18;57.74;100957.66;4972772;28;45489;-72
2022/06/02 04:28:13;;;;;;;;;8.00;8.00;;;;;12.20;57.90;100959.31;4974723;28;45504;-70
2022/06/02 04:30:45;;;;;;;;;9.00;9.00;;;;;12.25;57.60;100952.09;4973127;28;45342;-71
2022/06/02 04:33:29;;;;;;;;;12.50;12.25;;;;;12.30;57.48;100965.06;4972346;28;45366;-71
2022/06/02 04:36:05;;;;;;;;;13.75;11.00;;;;;12.34;57.20;100963.16;4973337;28;45443;-71
2022/06/02 04:38:42;;;;;;;;;10.00;10.00;;;;;12.38;57.11;100968.25;4972225;28;45406;-71
2022/06/02 04:41:16;;;;;;;;;13.00;11.00;;;;;12.43;57.10;100981.25;4973717;28;45437;-74
2022/06/02 04:44:08;;;;;;;;;12.00;12.00;;;;;12.53;56.66;100984.34;4975544;28;45345;-72
2022/06/02 04:46:50;;;;;;;;;15.00;12.25;;;;;12.59;56.85;100970.91;4994806;28;45574;-71
2022/06/02 04:49:33;;;;;;;;;13.00;11.00;;;;;12.70;56.28;100979.22;4974959;28;45326;-71
2022/06/02 04:52:36;;;;;;;;;11.50;10.25;;;;;12.83;55.83;100974.28;4973854;28;46131;-71
2022/06/02 04:55:16;;;;;;;;;11.75;11.75;;;;;13.04;56.06;100962.84;4975916;28;45319;-71
2022/06/02 04:57:42;;;;;;;;;11.25;11.25;;;;;13.42;55.34;100971.72;4975478;28;45176;-70
2022/06/02 05:00:25;;;;;;;;;11.75;11.75;;;;;13.91;54.62;100972.97;4975243;28;45483;-71
2022/06/02 05:03:09;;;;;;;;;11.75;11.00;;;;;14.36;53.51;100962.03;4976518;28;45408;-71
2022/06/02 05:05:42;;;;;;;;;11.00;11.00;;;;;14.85;52.47;100970.13;4982387;28;45735;-72
2022/06/02 05:08:24;;;;;;;;;10.00;10.00;;;;;15.15;51.60;100968.59;4981948;28;45746;-72
2022/06/02 05:11:08;;;;;;;;;11.25;11.25;;;;;15.40;51.24;100969.94;4979331;28;45658;-71
2022/06/02 05:13:49;;;;;;;;;13.00;11.00;;;;;15.50;50.46;100965.84;4974129;28;45350;-72
2022/06/02 05:16:27;;;;;;;;;12.50;10.50;;;;;15.54;50.45;100974.50;4974724;28;45308;-72
2022/06/02 05:19:23;;;;;;;;;12.00;12.00;;;;;15.47;50.29;100961.56;4974778;28;45535;-71
2022/06/02 05:22:02;;;;;;;;;13.00;13.00;;;;;15.37;50.18;100957.69;4974853;28;46754;-72
2022/06/02 05:24:37;;;;;;;;;9.25;9.25;;;;;15.24;50.14;100972.53;4975463;28;45370;-73
2022/06/02 05:27:21;;;;;;;;;15.25;13.00;;;;;15.14;50.31;100969.53;4975344;28;45253;-73
2022/06/02 05:30:08;;;;;;;;;15.75;15.00;;;;;15.04;50.67;100970.03;4974423;28;45424;-73
2022/06/02 05:32:33;;;;;;;;;14.25;12.00;;;;;14.98;50.44;100975.66;4973970;28;45290;-72
2022/06/02 05:35:23;;;;;;;;;12.75;12.75;;;;;14.98;50.87;100973.00;4974550;28;45461;-72
2022/06/02 05:37:51;;;;;;;;;12.25;12.25;;;;;15.04;50.74;100969.16;4974496;28;45499;-72
2022/06/02 05:40:38;;;;;;;;;11.00;11.00;;;;;15.11;50.43;100972.34;4974273;28;45487;-71
2022/06/02 05:43:25;;;;;;;;;15.00;13.00;;;;;15.22;50.57;100977.94;4974029;28;45731;-73
2022/06/02 05:46:12;;;;;;;;;18.50;17.00;;;;;15.31;50.43;100977.44;4979273;28;45213;-72
2022/06/02 05:48:59;;;;;;;;;12.00;12.00;;;;;15.44;50.25;100974.13;4976398;28;45804;-71
2022/06/02 05:51:30;;;;;;;;;11.50;11.25;;;;;15.45;49.62;100970.53;4975805;28;45448;-71
2022/06/02 05:53:58;;;;;;;;;11.00;11.00;;;;;15.45;50.13;100967.88;4973182;28;45268;-72
2022/06/02 05:56:53;;;;;;;;;15.00;13.00;;;;;15.45;49.95;100973.19;4975191;28;45328;-72
2022/06/02 05:59:46;;;;;;;;;17.00;16.25;;;;;15.39;50.03;100974.41;4974679;28;45342;-71
2022/06/02 06:02:39;;;;;;;;;16.00;15.50;;;;;15.38;49.87;100966.50;4974818;28;45247;-73
2022/06/02 06:05:04;;;;;;;;;14.50;14.50;;;;;15.42;49.49;100971.56;4973840;28;45286;-72
2022/06/02 06:08:02;;;;;;;;;14.25;13.25;;;;;15.41;49.91;100969.88;4974689;28;45314;-72
2022/06/02 06:10:36;;;;;;;;;13.50;13.50;;;;;15.34;49.96;100971.97;4974917;28;45772;-72
2022/06/02 06:13:38;;;;;;;;;15.25;13.75;;;;;15.28;50.15;100977.59;4975442;28;45211;-72
2022/06/02 06:16:22;;;;;;;;;15.50;14.50;;;;;15.23;50.15;100973.47;4976922;28;45280;-73
2022/06/02 06:18:47;;;;;;;;;12.25;11.00;;;;;15.25;50.12;100983.06;4973658;28;45440;-71
2022/06/02 06:21:30;;;;;;;;;18.25;18.25;;;;;15.21;50.12;100978.88;4974063;28;45332;-72
2022/06/02 06:24:06;;;;;;;;;16.25;16.25;;;;;15.19;50.23;100978.09;4974317;28;45354;-72
2022/06/02 06:26:54;;;;;;;;;15.75;14.75;;;;;15.14;50.36;100980.97;4974240;28;45544;-73
2022/06/02 06:29:28;;;;;;;;;19.50;15.75;;;;;15.11;50.51;100980.31;4973464;28;45313;-72
2022/06/02 06:31:59;;;;;;;;;16.00;16.00;;;;;15.00;50.72;100976.44;4973797;28;45411;-73
2022/06/02 06:34:43;;;;;;;;;13.00;13.00;;;;;14.90;50.80;100976.03;4976720;28;45420;-71
2022/06/02 06:37:47;;;;;;;;;15.75;14.00;;;;;14.78;51.28;100973.16;4973190;28;46230;-71
2022/06/02 06:40:34;;;;;;;;;16.50;14.50;;;;;14.68;51.43;100965.66;5034436;28;45333;-72
2022/06/02 06:43:31;;;;;;;;;14.50;14.50;;;;;14.65;51.59;100973.75;5038211;28;45946;-71
2022/06/02 06:46:00;;;;;;;;;14.25;14.25;;;;;14.68;51.62;100975.41;4988340;28;45537;-70
2022/06/02 06:48:37;;;;;;;;;16.25;16.25;;;;;14.71;51.77;100970.00;4974505;28;45231;-71
2022/06/02 06:51:40;;;;;;;;;16.50;16.50;;;;;14.74;51.69;100972.47;4972894;27;45270;-71
2022/06/02 06:54:38;;;;;;;;;17.75;16.00;;;;;14.81;51.78;100968.59;4974674;28;45432;-70
2022/06/02 06:57:18;;;;;;;;;17.75;17.75;;;;;14.87;51.31;100973.56;4982930;28;45456;-70
2022/06/02 07:00:00;;;;;;;;;16.50;16.00;;;;;14.97;51.56;100987.19;4972922;28;45464;-70
2022/06/02 07:02:50;;;;;;;;;18.25;16.50;;;;;15.03;51.59;100980.69;4984304;28;45459;-71
2022/06/02 07:05:25;;;;;;;;;14.25;14.25;;;;;15.07;51.44;100984.91;4964655;28;45353;-72
2022/06/02 07:08:28;;;;;;;;;15.75;14.75;;;;;15.15;51.01;100988.00;4975663;28;45165;-70
2022/06/02 07:14:23;;;;;;;;;12.75;12.75;;;;;15.36;51.16;100990.44;4994392;28;45467;-70
2022/06/02 07:16:57;;;;;;;;;18.25;16.00;;;;;15.47;50.88;100988.09;4953578;28;52688;-68
2022/06/02 07:19:49;;;;;;;;;17.50;14.50;;;;;15.56;50.82;100985.88;4989533;28;45417;-72
2022/06/02 07:22:31;;;;;;;;;16.00;13.00;;;;;15.73;50.54;100998.19;4995039;28;45383;-71
2022/06/02 07:25:16;;;;;;;;;15.25;15.00;;;;;15.80;50.39;100994.25;4999360;28;45769;-69
2022/06/02 07:27:53;;;;;;;;;14.25;13.00;;;;;15.83;50.15;100995.88;5046724;28;45381;-67
2022/06/02 07:30:52;;;;;;;;;15.75;13.00;;;;;15.86;50.30;100996.56;5007795;28;45271;-71
2022/06/02 07:33:41;;;;;;;;;15.50;15.50;;;;;15.97;49.84;100981.88;5035296;27;46422;-71
2022/06/02 07:36:50;;;;;;;;;14.75;13.00;;;;;16.06;49.94;100978.72;5062718;28;45294;-69
2022/06/02 07:39:34;;;;;;;;;14.00;13.50;;;;;16.25;49.82;100988.28;5034463;28;45454;-68
2022/06/02 07:42:14;;;;;;;;;11.25;11.25;;;;;16.38;49.73;100994.56;5012678;27;45272;-70
2022/06/02 07:45:03;;;;;;;;;14.00;14.00;;;;;16.49;48.86;100993.97;4962016;28;46149;-67
2022/06/02 07:47:58;;;;;;;;;15.25;13.75;;;;;16.61;48.62;101003.00;5054508;27;45602;-68
2022/06/02 07:50:30;;;;;;;;;17.50;15.00;;;;;16.67;48.60;100997.31;5064159;27;45211;-67
2022/06/02 07:53:25;;;;;;;;;13.00;13.00;;;;;16.75;48.60;100987.09;4992336;28;45374;-68
2022/06/02 07:56:13;;;;;;;;;12.75;12.00;;;;;16.97;48.37;100980.53;4992360;28;45380;-68
2022/06/02 07:59:00;;;;;;;;;13.75;11.50;;;;;17.20;47.95;100984.41;4992423;28;45420;-65
2022/06/02 08:01:48;;;;;;;;;11.00;11.00;;;;;17.45;47.14;100990.84;4992653;28;45333;-68
2022/06/02 08:04:31;;;;;;;;;22.00;21.00;;;;;17.56;47.22;100960.94;4994063;28;45491;-68
2022/06/02 08:07:03;;;;;;;;;13.00;11.25;;;;;17.96;46.26;100989.44;4992155;28;46164;-66
2022/06/02 08:09:53;;;;;;;;;14.25;13.25;;;;;18.11;45.87;100979.66;4991531;28;45490;-67
2022/06/02 08:12:21;;;;;;;;;14.25;12.25;;;;;18.20;45.05;100987.03;4992039;28;45362;-67
2022/06/02 08:15:11;;;;;;;;;13.25;13.25;;;;;18.30;45.37;100975.78;4991584;28;45546;-67
2022/06/02 08:17:46;;;;;;;;;10.00;10.00;;;;;18.42;45.08;100964.28;4992396;28;45992;-68
2022/06/02 08:20:38;;;;;;;;;9.75;9.00;;;;;18.65;44.53;100970.72;5012186;28;45282;-68
2022/06/02 08:23:22;;;;;;;;;10.25;10.00;;;;;18.76;43.97;100969.13;4993766;28;45370;-70
2022/06/02 08:25:48;;;;;;;;;13.25;11.50;;;;;18.93;43.93;100968.81;4992782;28;45337;-69
2022/06/02 08:28:24;;;;;;;;;11.00;11.00;;;;;19.18;43.75;100969.78;4991932;28;46090;-66
2022/06/02 08:30:56;;;;;;;;;12.25;12.25;;;;;19.44;42.52;100974.25;4992820;28;45432;-68
2022/06/02 08:33:33;;;;;;;;;12.75;11.75;;;;;19.66;42.26;100966.41;4992451;28;45313;-67
2022/06/02 08:36:07;;;;;;;;;15.25;14.25;;;;;19.95;41.91;100957.25;4994941;28;45287;-69
2022/06/02 08:38:46;;;;;;;;;12.75;11.00;;;;;20.23;40.45;100952.53;4991123;28;48185;-67
2022/06/02 08:41:30;;;;;;;;;15.25;14.00;;;;;20.41;39.63;100953.78;4992591;28;45283;-65
2022/06/02 08:44:08;;;;;;;;;9.50;9.50;;;;;20.65;40.58;100936.00;4993041;28;45409;-65
2022/06/02 08:46:54;;;;;;;;;13.25;10.50;;;;;21.01;40.15;100944.81;4995759;28;45411;-67
2022/06/02 08:49:47;;;;;;;;;20.00;17.00;;;;;21.25;38.68;100946.53;4993407;28;45567;-67
2022/06/02 08:52:31;;;;;;;;;13.25;13.25;;;;;21.38;38.70;100936.56;4991889;28;45314;-68
2022/06/02 08:55:34;;;;;;;;;10.50;9.00;;;;;21.58;38.09;100937.59;4992019;28;45439;-68
2022/06/02 08:58:33;;;;;;;;;10.50;8.75;;;;;21.61;37.86;100933.84;4991682;28;45475;-67
2022/06/02 09:01:24;;;;;;;;;5.75;5.50;;;;;21.78;37.66;100942.34;5006315;28;47685;-66
2022/06/02 09:04:04;;;;;;;;;7.50;7.50;;;;;21.89;37.84;100936.94;4991383;28;45366;-69
2022/06/02 09:06:42;;;;;;;;;6.25;4.00;;;;;22.00;36.87;100939.56;4990025;28;45322;-69
2022/06/02 09:09:19;;;;;;;;;8.75;8.00;;;;;22.03;37.52;100933.13;4991804;28;45568;-71
2022/06/02 09:12:02;;;;;;;;;7.00;7.00;;;;;22.15;37.20;100936.59;4990843;28;45310;-68
2022/06/02 09:15:02;;;;;;;;;7.25;7.25;;;;;22.13;37.22;100941.22;4990714;28;45394;-67
2022/06/02 09:17:56;;;;;;;;;6.75;6.75;;;;;22.03;36.68;100939.31;4991120;27;45810;-70
2022/06/02 09:20:24;;;;;;;;;7.50;5.25;;;;;22.01;36.81;100943.97;4991613;28;45462;-68
2022/06/02 09:23:03;;;;;;;;;7.75;4.25;;;;;21.80;36.66;100940.38;4990930;28;47102;-70
2022/06/02 09:25:59;;;;;;;;;6.25;6.25;;;;;21.69;36.69;100939.44;5006148;28;45266;-70
2022/06/02 09:28:57;;;;;;;;;6.25;6.25;;;;;21.77;36.86;100936.16;4972702;28;45276;-69
2022/06/02 09:31:38;;;;;;;;;8.75;7.50;;;;;21.86;36.61;100942.56;4984752;27;45425;-69
2022/06/02 09:34:21;;;;;;;;;5.75;5.75;;;;;21.92;36.27;100942.03;4993198;28;46363;-69
2022/06/02 09:37:21;;;;;;;;;4.00;4.00;;;;;21.94;35.84;100947.28;4994397;28;45329;-70
2022/06/02 09:40:23;;;;;;;;;0.00;0.00;;;;;22.12;36.16;100944.88;4994178;28;45311;-66
2022/06/02 09:43:01;;;;;;;;;8.25;8.25;;;;;22.18;34.29;100947.91;4998000;28;45263;-68
2022/06/02 09:45:54;;;;;;;;;5.50;5.50;;;;;22.04;35.02;100942.88;4993454;28;47655;-69
2022/06/02 09:48:47;;;;;;;;;6.00;6.00;;;;;22.00;34.92;100938.75;4992503;28;45279;-66
2022/06/02 09:51:45;;;;;;;;;6.00;5.25;;;;;22.01;35.14;100935.91;4994769;28;45377;-66
2022/06/02 09:54:23;;;;;;;;;12.25;9.00;;;;;21.94;34.86;100940.09;4994838;28;45408;-66
2022/06/02 10:00:39;;;;;;;;;9.75;9.50;;;;;22.06;35.06;100942.72;4995899;28;45255;-67
2022/06/02 10:03:05;;;;;;;;;8.50;7.25;;;;;22.15;35.33;100947.31;4993412;28;45192;-67
2022/06/02 10:05:33;;;;;;;;;4.00;4.00;;;;;22.33;34.79;100947.59;4992135;28;45300;-70
2022/06/02 10:08:26;;;;;;;;;5.50;5.00;;;;;22.46;34.23;100945.59;4993826;28;46498;-67
2022/06/02 10:11:19;;;;;;;;;10.25;8.50;;;;;22.53;34.11;100945.94;4994786;28;45206;-66
2022/06/02 10:14:07;;;;;;;;;6.75;6.75;;;;;22.55;34.07;100944.00;4995400;28;45296;-67
2022/06/02 10:16:35;;;;;;;;;9.00;8.50;;;;;22.71;33.85;100934.63;5010180;28;45332;-66
2022/06/02 10:19:19;;;;;;;;;5.00;5.00;;;;;22.77;33.95;100936.78;4994357;28;45923;-68
2022/06/02 10:21:59;;;;;;;;;7.50;7.00;;;;;22.81;32.93;100932.00;4998028;28;45435;-68
2022/06/02 10:25:00;;;;;;;;;10.00;10.00;;;;;22.78;32.96;100927.75;4994978;28;45341;-67
2022/06/02 10:27:39;;;;;;;;;55.50;44.25;;;;;22.80;33.52;100924.91;4994179;28;45347;-68
2022/06/02 10:30:42;;;;;;;;;23.00;21.50;;;;;22.93;33.19;100920.22;4992099;28;47169;-66
2022/06/02 10:33:25;;;;;;;;;8.00;8.00;;;;;23.07;32.72;100927.03;4992178;28;45521;-68
2022/06/02 10:36:09;;;;;;;;;9.00;8.00;;;;;23.15;32.98;100913.78;4992917;28;45285;-69
2022/06/02 10:39:18;;;;;;;;;8.50;8.25;;;;;23.18;32.01;100915.34;4991995;28;45328;-66
2022/06/02 10:42:04;;;;;;;;;6.75;6.75;;;;;23.16;31.88;100920.84;4993225;28;45725;-67
2022/06/02 10:44:54;;;;;;;;;4.00;4.00;;;;;23.04;31.55;100913.88;4991507;28;45402;-68
2022/06/02 10:47:41;;;;;;;;;17.50;16.25;;;;;23.02;32.27;100921.22;4994310;28;45453;-69
2022/06/02 10:50:25;;;;;;;;;17.25;14.75;;;;;23.01;32.12;100911.47;4995627;28;45302;-67
2022/06/02 10:53:23;;;;;;;;;11.00;10.00;;;;;23.13;32.65;100910.38;4997540;28;46483;-70
2022/06/02 10:56:19;;;;;;;;;8.00;8.00;;;;;23.19;32.16;100909.84;4962848;28;45493;-68
2022/06/02 10:58:59;;;;;;;;;12.25;12.25;;;;;23.28;32.53;100907.34;4995907;28;45261;-68
2022/06/02 11:02:03;;;;;;;;;6.75;6.25;;;;;23.27;32.13;100902.97;4992999;28;45453;-67
2022/06/02 11:04:54;;;;;;;;;5.00;5.00;;;;;23.19;32.55;100896.41;4991949;28;46405;-68
2022/06/02 11:07:52;;;;;;;;;7.00;5.50;;;;;23.15;31.40;100897.69;4992976;28;45385;-68
2022/06/02 11:10:22;;;;;;;;;4.25;4.25;;;;;22.99;31.68;100892.84;4992862;28;45353;-65
2022/06/02 11:13:25;;;;;;;;;6.00;6.00;;;;;22.97;31.90;100885.91;4993474;28;45381;-67
2022/06/02 11:16:41;;;;;;;;;6.00;6.00;;;;;23.24;31.79;100889.81;4992522;28;45355;-65
2022/06/02 11:19:42;;;;;;;;;5.50;5.50;;;;;23.44;30.75;100880.00;4912751;28;45523;-67
2022/06/02 11:22:35;;;;;;;;;7.00;7.00;;;;;23.68;30.98;100871.53;4913658;28;45212;-67
2022/06/02 11:25:24;;;;;;;;;12.00;12.00;;;;;23.95;30.67;100886.09;4985454;28;45624;-67
2022/06/02 11:28:11;;;;;;;;;21.75;20.75;;;;;24.16;30.04;100882.44;4992989;28;46358;-66
2022/06/02 11:30:43;;;;;;;;;10.50;10.50;;;;;24.33;29.89;100876.31;4994406;28;45443;-67
2022/06/02 11:33:35;;;;;;;;;9.75;9.75;;;;;24.44;28.91;100864.56;4996030;28;45452;-67
2022/06/02 11:36:25;;;;;;;;;4.25;4.00;;;;;24.49;29.04;100869.53;4990538;27;45201;-70
2022/06/02 11:39:23;;;;;;;;;7.50;6.00;;;;;24.32;29.39;100860.34;4994789;28;46436;-70
2022/06/02 11:42:06;;;;;;;;;4.25;4.25;;;;;24.39;29.82;100860.59;4953181;28;45793;-71
2022/06/02 11:45:02;;;;;;;;;6.00;4.50;;;;;24.52;29.47;100855.78;4992199;28;45356;-69
2022/06/02 11:47:36;;;;;;;;;8.00;8.00;;;;;24.70;29.57;100855.84;4994549;28;45280;-69
2022/06/02 11:50:28;;;;;;;;;3.50;3.50;;;;;24.80;29.11;100853.97;4992759;28;45378;-69
2022/06/02 11:52:57;;;;;;;;;10.25;6.50;;;;;24.85;29.66;100858.06;4979529;28;45420;-71
2022/06/02 11:55:45;;;;;;;;;5.00;5.00;;;;;24.87;29.96;100851.56;4993018;28;45315;-67
2022/06/02 11:58:26;;;;;;;;;7.50;5.75;;;;;24.94;29.38;100846.44;4991586;28;45363;-70
2022/06/02 12:01:12;;;;;;;;;5.00;5.00;;;;;25.00;29.32;100848.53;4992068;28;46391;-70
2022/06/02 12:03:40;;;;;;;;;5.00;5.00;;;;;25.05;29.74;100848.06;4991090;28;45713;-69
2022/06/02 12:06:24;;;;;;;;;6.75;5.50;;;;;25.11;29.27;100842.06;4992936;28;45398;-67
2022/06/02 12:09:25;;;;;;;;;5.50;3.50;;;;;25.04;28.71;100841.84;4995174;28;45381;-67
2022/06/02 12:11:54;;;;;;;;;6.25;6.00;;;;;24.97;29.70;100845.28;4992931;28;46918;-68
2022/06/02 12:14:30;;;;;;;;;5.75;4.75;;;;;24.90;29.36;100839.63;4993659;28;45242;-69
2022/06/02 12:17:17;;;;;;;;;10.00;7.75;;;;;24.83;29.31;100836.72;4992954;28;45587;-69
2022/06/02 12:19:58;;;;;;;;;8.00;8.00;;;;;24.70;28.94;100820.03;4992751;28;45420;-69
2022/06/02 12:22:45;;;;;;;;;5.75;4.75;;;;;24.72;29.00;100828.81;4991756;28;46152;-68
2022/06/02 12:25:36;;;;;;;;;4.00;4.00;;;;;24.72;28.61;100826.13;4991213;28;45242;-69
2022/06/02 12:28:38;;;;;;;;;7.50;7.25;;;;;24.73;29.02;100825.97;4991894;28;45349;-68
2022/06/02 12:31:40;;;;;;;;;2.75;2.75;;;;;24.82;29.38;100816.19;4993757;28;45308;-67
2022/06/02 12:34:33;;;;;;;;;5.00;5.00;;;;;25.04;28.85;100820.31;4991281;28;45565;-66
2022/06/02 12:37:17;;;;;;;;;9.00;6.00;;;;;25.43;28.43;100804.88;4991400;28;45444;-66
2022/06/02 12:39:54;;;;;;;;;4.00;4.00;;;;;25.63;27.48;100803.75;4993137;28;45459;-68
2022/06/02 12:43:13;;;;;;;;;5.00;5.00;;;;;25.79;28.36;100794.09;4993820;28;45520;-65
2022/06/02 12:45:48;;;;;;;;;5.00;5.00;;;;;25.93;28.07;100798.09;4912606;28;45455;-67
2022/06/02 12:48:31;;;;;;;;;6.50;5.00;;;;;26.08;27.79;100785.72;4989960;28;45326;-66
2022/06/02 12:51:31;;;;;;;;;5.00;5.00;;;;;26.27;27.01;100800.03;4989639;28;45477;-65
2022/06/02 12:54:33;;;;;;;;;6.75;6.75;;;;;26.33;27.62;100791.28;4991305;28;45414;-66